Time;durP1;ratioP1;P1;durP2;ratioP2;P2;SDS_P1;SDS_P2;PMS_P1;PMS_P2;Temp;Humidity;BMP_temperature;BMP_pressure;BME280_temperature;BME280_humidity;BME280_pressure;Samples;Min_cycle;Max_cycle;Signal;HPM_P1;HPM_P2
2023/12/29 00:01:56;;;;;;;2.28;1.00;;;;;;;-1.84;70.09;98655.25;5088757;28;20109;-55
2023/12/29 00:04:21;;;;;;;4.20;1.20;;;;;;;-1.62;69.77;98678.16;5085182;28;20048;-53
2023/12/29 00:06:48;;;;;;;3.63;1.40;;;;;;;-1.65;70.01;98683.25;5086260;28;20036;-57
2023/12/29 00:09:19;;;;;;;3.10;1.30;;;;;;;-1.58;69.93;98674.75;5088657;28;20702;-54
2023/12/29 00:11:50;;;;;;;4.03;1.50;;;;;;;-1.57;69.95;98667.06;5086202;28;20178;-56
2023/12/29 00:14:16;;;;;;;3.35;1.50;;;;;;;-1.58;69.80;98669.63;5086135;28;20044;-56
2023/12/29 00:16:43;;;;;;;3.00;1.40;;;;;;;-1.62;69.97;98657.78;5086634;28;20040;-55
2023/12/29 00:19:11;;;;;;;3.20;0.98;;;;;;;-1.52;69.79;98660.28;5090473;28;20545;-59
2023/12/29 00:21:37;;;;;;;3.80;1.75;;;;;;;-1.55;69.61;98647.53;5083300;28;20051;-55
2023/12/29 00:24:04;;;;;;;3.95;1.50;;;;;;;-1.72;69.43;98605.97;5088715;28;20543;-56
2023/12/29 00:26:30;;;;;;;3.88;1.55;;;;;;;-1.47;69.50;98627.13;5088099;28;20043;-56
2023/12/29 00:28:57;;;;;;;3.88;1.35;;;;;;;-1.41;69.75;98634.75;5088099;28;20097;-53
2023/12/29 00:31:24;;;;;;;2.80;1.48;;;;;;;-1.58;69.67;98598.28;5086544;28;20468;-57
2023/12/29 00:33:52;;;;;;;3.30;1.70;;;;;;;-1.34;69.48;98621.13;5082428;28;20040;-56
2023/12/29 00:36:21;;;;;;;3.45;1.42;;;;;;;-1.27;69.45;98622.81;5084303;28;20043;-53
2023/12/29 00:38:47;;;;;;;3.30;1.23;;;;;;;-1.49;69.46;98576.16;5086391;28;20055;-56
2023/12/29 00:41:13;;;;;;;2.90;1.30;;;;;;;-1.22;69.35;98602.38;5096492;28;20044;-54
2023/12/29 00:43:39;;;;;;;3.33;1.10;;;;;;;-1.21;68.85;98614.28;5087724;28;20044;-55
2023/12/29 00:46:05;;;;;;;2.45;1.48;;;;;;;-1.29;68.77;98611.75;5071780;28;20036;-53
2023/12/29 00:48:32;;;;;;;3.50;1.20;;;;;;;-1.45;69.05;98585.50;5055496;28;20048;-54
2023/12/29 00:50:57;;;;;;;2.75;1.35;;;;;;;-1.33;69.03;98590.53;5070184;28;20032;-52
2023/12/29 00:53:23;;;;;;;2.08;0.68;;;;;;;-1.36;69.06;98582.06;5084279;28;20051;-54
2023/12/29 00:55:49;;;;;;;3.55;1.15;;;;;;;-1.27;68.92;98589.66;5087947;28;20068;-56
2023/12/29 00:58:15;;;;;;;3.03;1.33;;;;;;;-1.52;68.46;98547.31;5066485;28;20064;-57
2023/12/29 01:00:41;;;;;;;2.10;1.20;;;;;;;-1.49;68.75;98547.28;5085826;28;20134;-57
2023/12/29 01:03:07;;;;;;;2.63;1.38;;;;;;;-1.33;68.78;98571.84;5087264;28;20050;-56
2023/12/29 01:05:32;;;;;;;2.80;1.42;;;;;;;-1.33;68.92;98569.28;5086951;28;20419;-57
2023/12/29 01:07:58;;;;;;;2.60;1.15;;;;;;;-1.25;69.00;98564.13;5087023;28;20044;-58
2023/12/29 01:10:24;;;;;;;2.50;1.45;;;;;;;-1.15;68.77;98556.44;5087103;28;20052;-58
2023/12/29 01:12:50;;;;;;;2.03;1.02;;;;;;;-1.07;68.71;98564.06;5084188;28;20054;-57
2023/12/29 01:15:16;;;;;;;2.53;1.23;;;;;;;-1.20;68.79;98567.53;5085150;28;20560;-55
2023/12/29 01:17:42;;;;;;;1.77;0.98;;;;;;;-1.16;68.68;98562.41;5086557;28;20040;-57
2023/12/29 01:20:08;;;;;;;3.38;1.48;;;;;;;-1.25;68.65;98554.78;5085167;28;20046;-56
2023/12/29 01:22:34;;;;;;;5.38;1.80;;;;;;;-1.22;68.51;98554.78;5081737;28;20051;-57
2023/12/29 01:25:01;;;;;;;0.75;0.60;;;;;;;-1.46;68.89;98524.31;5084981;28;20032;-56
2023/12/29 01:27:29;;;;;;;1.95;0.75;;;;;;;-1.29;68.85;98556.53;5082657;28;20047;-57
2023/12/29 01:29:55;;;;;;;3.92;1.50;;;;;;;-1.32;68.55;98543.81;5084079;28;20400;-54
2023/12/29 01:32:21;;;;;;;3.35;1.40;;;;;;;-1.44;68.88;98503.09;5067760;28;20044;-56
2023/12/29 01:34:48;;;;;;;3.47;1.25;;;;;;;-1.31;68.68;98501.31;5083502;28;20063;-56
2023/12/29 01:37:14;;;;;;;2.47;1.30;;;;;;;-0.96;68.68;98521.47;5084605;28;20075;-54
2023/12/29 01:39:40;;;;;;;4.50;1.40;;;;;;;-0.91;68.17;98509.53;5072917;28;20044;-54
2023/12/29 01:42:06;;;;;;;2.63;1.02;;;;;;;-0.81;68.48;98503.50;5084658;28;20047;-56
2023/12/29 01:44:32;;;;;;;2.65;1.40;;;;;;;-0.91;68.03;98489.13;5066298;28;20549;-54
2023/12/29 01:47:00;;;;;;;1.65;0.90;;;;;;;-0.94;67.86;98502.75;5085301;28;20051;-56
2023/12/29 01:49:27;;;;;;;2.92;1.35;;;;;;;-1.04;68.29;98492.63;5067960;28;20599;-53
2023/12/29 01:51:56;;;;;;;2.65;0.90;;;;;;;-1.27;68.09;98463.91;5082200;28;20040;-56
2023/12/29 01:54:23;;;;;;;;;;;;;;;-1.09;68.48;98487.56;5077263;28;20032;-57
2023/12/29 01:56:50;;;;;;;2.08;0.82;;;;;;;-1.15;68.23;98467.19;5065919;28;19964;-56
2023/12/29 01:59:16;;;;;;;1.85;1.15;;;;;;;-1.32;68.32;98429.09;5083454;28;20131;-55
2023/12/29 02:01:42;;;;;;;2.47;1.30;;;;;;;-1.05;67.82;98460.34;5083610;28;20040;-56
2023/12/29 02:04:08;;;;;;;4.03;1.20;;;;;;;-0.93;68.13;98466.19;5067503;28;20538;-58
2023/12/29 02:06:34;;;;;;;1.38;0.90;;;;;;;-0.99;67.68;98458.56;5068861;28;20079;-53
2023/12/29 02:09:02;;;;;;;2.65;1.45;;;;;;;-1.01;67.94;98462.00;5084530;28;20046;-55
2023/12/29 02:11:28;;;;;;;2.63;1.20;;;;;;;-0.95;67.64;98444.09;5084448;28;20130;-57
2023/12/29 02:13:53;;;;;;;2.45;1.38;;;;;;;-0.93;67.71;98448.31;5081388;28;20146;-56
2023/12/29 02:16:30;;;;;;;2.55;1.27;;;;;;;-0.92;67.54;98456.81;5072688;28;20184;-54
2023/12/29 02:18:57;;;;;;;2.70;1.20;;;;;;;-0.95;67.76;98457.72;5084806;28;20040;-56
2023/12/29 02:21:25;;;;;;;2.70;1.30;;;;;;;-1.16;67.75;98406.88;5064960;28;20069;-57
2023/12/29 02:23:51;;;;;;;2.88;1.50;;;;;;;-1.01;67.80;98419.50;5068700;28;20466;-56
2023/12/29 02:26:20;;;;;;;3.58;1.30;;;;;;;-0.91;67.71;98427.91;5069251;28;20043;-53
2023/12/29 02:28:54;;;;;;;3.85;1.55;;;;;;;-0.85;67.46;98422.75;5074797;28;20094;-58
2023/12/29 02:31:24;;;;;;;1.60;0.95;;;;;;;-0.77;67.48;98430.31;5074893;28;20044;-54
2023/12/29 02:33:51;;;;;;;1.30;0.93;;;;;;;-0.84;67.25;98421.06;5071623;28;20093;-56
2023/12/29 02:36:17;;;;;;;2.33;1.10;;;;;;;-0.97;67.44;98405.84;5068066;28;20075;-57
2023/12/29 02:38:44;;;;;;;1.30;0.68;;;;;;;-1.20;67.36;98369.50;5073520;28;20036;-54
2023/12/29 02:41:13;;;;;;;3.90;1.77;;;;;;;-0.93;67.50;98406.66;5079582;28;20035;-54
2023/12/29 02:43:40;;;;;;;1.80;1.10;;;;;;;-1.09;67.65;98367.69;5074222;28;20049;-53
2023/12/29 02:46:06;;;;;;;1.58;0.90;;;;;;;-1.27;67.57;98327.09;5089937;28;20047;-52
2023/12/29 02:48:32;;;;;;;2.10;0.93;;;;;;;-0.90;66.98;98402.41;5071290;28;20499;-52
2023/12/29 02:50:58;;;;;;;1.88;1.00;;;;;;;-0.99;67.15;98393.97;5073351;28;20044;-53
2023/12/29 02:53:24;;;;;;;3.22;1.20;;;;;;;-0.95;67.62;98388.84;5070481;28;20135;-58
2023/12/29 02:55:51;;;;;;;1.95;0.98;;;;;;;-0.95;67.53;98381.19;5071777;28;20067;-52
2023/12/29 02:58:17;;;;;;;0.63;0.52;;;;;;;-0.92;67.56;98381.16;5055638;28;20511;-57
2023/12/29 03:00:43;;;;;;;2.30;1.05;;;;;;;-0.91;67.24;98377.75;5088844;28;20040;-55
2023/12/29 03:03:09;;;;;;;2.70;0.77;;;;;;;-0.95;67.70;98375.25;5072936;28;20043;-56
2023/12/29 03:05:35;;;;;;;4.05;1.48;;;;;;;-1.03;67.71;98370.19;5073140;28;20120;-56
2023/12/29 03:08:01;;;;;;;1.70;0.57;;;;;;;-1.02;68.14;98383.78;5073513;28;20131;-53
2023/12/29 03:10:27;;;;;;;2.38;1.17;;;;;;;-1.27;68.25;98344.09;5070761;28;20048;-53
2023/12/29 03:12:53;;;;;;;2.53;1.00;;;;;;;-1.20;68.05;98359.28;5073266;28;20043;-54
2023/12/29 03:15:19;;;;;;;4.10;1.05;;;;;;;-1.04;68.50;98368.50;5088808;28;20048;-52
2023/12/29 03:17:47;;;;;;;2.50;1.38;;;;;;;-1.10;68.47;98355.81;5063779;28;20043;-53
2023/12/29 03:20:14;;;;;;;1.70;0.80;;;;;;;-1.04;68.47;98353.19;5081449;28;20126;-52
2023/12/29 03:22:40;;;;;;;2.88;1.42;;;;;;;-1.08;68.51;98355.78;5070951;28;20166;-57
2023/12/29 03:25:06;;;;;;;2.55;1.30;;;;;;;-1.05;68.53;98354.09;5071368;28;20040;-56
2023/12/29 03:27:32;;;;;;;2.60;1.25;;;;;;;-1.11;68.79;98348.19;5072210;28;20052;-56
2023/12/29 03:29:58;;;;;;;2.03;1.00;;;;;;;-1.03;68.73;98348.94;5072133;28;20040;-58
2023/12/29 03:32:24;;;;;;;2.50;1.38;;;;;;;-1.02;68.75;98338.75;5070181;28;20043;-56
2023/12/29 03:34:50;;;;;;;3.50;1.25;;;;;;;-1.00;69.01;98334.47;5073695;28;20044;-57
2023/12/29 03:37:16;;;;;;;2.30;0.85;;;;;;;-1.01;68.88;98343.00;5069210;28;20036;-57
2023/12/29 03:39:42;;;;;;;2.47;1.17;;;;;;;-1.01;69.05;98332.78;5080344;28;20044;-54
2023/12/29 03:42:07;;;;;;;2.83;1.40;;;;;;;-0.92;68.89;98327.59;5072592;28;20032;-57
2023/12/29 03:44:33;;;;;;;2.72;1.55;;;;;;;-0.91;69.27;98324.19;5073318;28;20087;-58
2023/12/29 03:47:00;;;;;;;3.03;1.02;;;;;;;-0.95;69.13;98314.88;5081273;28;20059;-56
2023/12/29 03:49:26;;;;;;;3.17;1.27;;;;;;;-0.96;69.47;98313.19;5079566;28;20036;-56
2023/12/29 03:51:52;;;;;;;2.47;1.00;;;;;;;-1.07;69.32;98291.19;5073927;28;20043;-56
2023/12/29 03:54:19;;;;;;;3.88;1.55;;;;;;;-1.05;69.59;98277.59;5059770;28;20049;-54
2023/12/29 03:56:46;;;;;;;2.15;1.10;;;;;;;-1.23;69.35;98267.56;5082369;28;20055;-56
2023/12/29 03:59:12;;;;;;;4.03;1.60;;;;;;;-1.07;70.19;98286.09;5076517;28;20048;-54
2023/12/29 04:01:40;;;;;;;5.22;1.58;;;;;;;-0.96;70.51;98297.88;5071477;28;20181;-58
2023/12/29 04:04:05;;;;;;;1.63;0.90;;;;;;;-0.94;70.09;98310.59;5074143;28;20044;-55
2023/12/29 04:06:31;;;;;;;4.07;1.70;;;;;;;-1.12;71.04;98293.78;5080449;28;20054;-55
2023/12/29 04:08:57;;;;;;;1.20;0.85;;;;;;;-1.13;71.53;98293.81;5064947;28;20044;-56
2023/12/29 04:11:23;;;;;;;1.70;0.93;;;;;;;-1.18;72.21;98286.22;5080269;28;20080;-55
2023/12/29 04:13:48;;;;;;;4.22;1.80;;;;;;;-1.23;72.45;98289.66;5071275;28;20052;-56
2023/12/29 04:16:15;;;;;;;5.75;1.52;;;;;;;-1.23;72.95;98287.09;5073724;28;20037;-55
2023/12/29 04:18:41;;;;;;;1.90;0.95;;;;;;;-1.22;73.83;98281.16;5066328;28;20044;-55
2023/12/29 04:21:08;;;;;;;4.75;1.65;;;;;;;-1.31;74.75;98271.91;5083201;28;20046;-53
2023/12/29 04:23:34;;;;;;;2.17;1.38;;;;;;;-1.29;75.14;98265.06;5081469;28;20401;-56
2023/12/29 04:26:00;;;;;;;3.70;2.17;;;;;;;-1.26;75.67;98261.66;5079893;28;20074;-56
2023/12/29 04:28:26;;;;;;;3.17;1.75;;;;;;;-1.27;75.85;98258.25;5082350;28;20035;-53
2023/12/29 04:30:54;;;;;;;3.88;2.00;;;;;;;-1.27;75.98;98242.97;5082626;28;20036;-56
2023/12/29 04:33:20;;;;;;;3.25;1.65;;;;;;;-1.25;76.50;98241.22;5081199;28;20055;-53
2023/12/29 04:35:47;;;;;;;3.53;1.52;;;;;;;-1.18;76.14;98213.97;5072075;28;20143;-54
2023/12/29 04:38:14;;;;;;;7.25;2.00;;;;;;;-1.21;76.15;98212.31;5076103;28;20047;-52
2023/12/29 04:40:40;;;;;;;3.83;1.90;;;;;;;-1.11;76.14;98208.78;5057017;28;20402;-55
2023/12/29 04:43:07;;;;;;;5.45;2.00;;;;;;;-1.09;76.27;98207.06;5074989;28;20133;-55
2023/12/29 04:45:32;;;;;;;3.92;1.73;;;;;;;-1.11;76.67;98207.94;5085415;28;20040;-55
2023/12/29 04:47:59;;;;;;;4.00;1.85;;;;;;;-1.13;76.30;98200.31;5086305;28;20115;-51
2023/12/29 04:50:24;;;;;;;3.67;1.75;;;;;;;-1.21;76.49;98166.44;5085247;28;20173;-54
2023/12/29 04:52:50;;;;;;;3.20;1.45;;;;;;;-0.97;76.64;98208.63;5087142;28;20044;-55
2023/12/29 04:55:16;;;;;;;2.97;1.83;;;;;;;-1.16;76.58;98177.41;5094846;28;20461;-57
2023/12/29 04:57:42;;;;;;;3.13;1.50;;;;;;;-1.16;76.73;98168.91;5075432;28;20050;-57
2023/12/29 05:00:08;;;;;;;5.30;1.77;;;;;;;-0.99;76.58;98202.69;5084484;28;20067;-57
2023/12/29 05:02:34;;;;;;;6.82;2.53;;;;;;;-0.98;76.78;98194.19;5088133;28;20035;-57
2023/12/29 05:05:00;;;;;;;3.33;1.70;;;;;;;-0.93;76.54;98197.50;5086758;28;20522;-54
2023/12/29 05:07:26;;;;;;;4.32;2.47;;;;;;;-1.17;76.65;98164.69;5085277;28;20051;-55
2023/12/29 05:09:52;;;;;;;5.07;2.13;;;;;;;-1.15;76.62;98157.88;5083774;28;20036;-58
2023/12/29 05:12:18;;;;;;;5.22;1.95;;;;;;;-0.87;76.61;98202.53;5084045;28;20032;-55
2023/12/29 05:14:44;;;;;;;5.55;1.65;;;;;;;-0.86;76.30;98189.78;5054072;28;20096;-55
2023/12/29 05:17:10;;;;;;;5.78;2.60;;;;;;;-0.80;76.35;98188.84;5083611;28;20512;-53
2023/12/29 05:19:36;;;;;;;4.30;2.03;;;;;;;-0.79;76.15;98184.59;5085894;28;20040;-57
2023/12/29 05:22:02;;;;;;;4.18;1.40;;;;;;;-0.74;76.61;98186.22;5086381;28;20858;-56
2023/12/29 05:24:28;;;;;;;6.47;2.40;;;;;;;-0.82;76.47;98169.31;5081215;28;20085;-56
2023/12/29 05:26:53;;;;;;;6.38;1.92;;;;;;;-0.77;76.40;98176.03;5065356;28;20032;-54
2023/12/29 05:29:21;;;;;;;4.82;1.88;;;;;;;-0.84;76.66;98165.97;5081588;28;20048;-54
2023/12/29 05:31:47;;;;;;;6.05;2.30;;;;;;;-1.11;76.21;98121.25;5083991;28;20051;-55
2023/12/29 05:34:13;;;;;;;5.10;2.25;;;;;;;-0.97;76.51;98130.41;5056253;28;20044;-55
2023/12/29 05:36:39;;;;;;;7.20;2.35;;;;;;;-0.73;75.95;98171.75;5083992;28;20065;-53
2023/12/29 05:39:05;;;;;;;6.28;1.92;;;;;;;-0.60;76.29;98163.06;5084078;28;20078;-54
2023/12/29 05:41:31;;;;;;;5.95;2.30;;;;;;;-0.54;76.36;98166.38;5083267;28;20040;-56
2023/12/29 05:43:58;;;;;;;5.22;2.38;;;;;;;-0.68;76.13;98163.16;5085079;28;20121;-53
2023/12/29 05:46:24;;;;;;;7.88;1.77;;;;;;;-0.68;75.80;98165.69;5084340;28;20095;-55
2023/12/29 05:48:52;;;;;;;4.50;2.13;;;;;;;-0.79;75.72;98171.84;5083242;28;20059;-54
2023/12/29 05:51:18;;;;;;;4.15;2.20;;;;;;;-0.83;76.28;98165.91;5078395;28;20043;-56
2023/12/29 05:53:44;;;;;;;6.80;1.77;;;;;;;-0.87;76.20;98162.56;5085776;28;20048;-56
2023/12/29 05:56:12;;;;;;;4.30;1.75;;;;;;;-0.90;76.71;98160.06;5069996;28;20094;-55
2023/12/29 05:58:41;;;;;;;4.88;2.47;;;;;;;-1.27;76.07;98084.09;5082341;28;20051;-56
2023/12/29 06:01:07;;;;;;;6.55;2.60;;;;;;;-0.90;76.63;98165.19;5081506;28;20059;-54
2023/12/29 06:03:33;;;;;;;3.72;2.15;;;;;;;-1.23;76.43;98112.06;5067054;28;20133;-58
2023/12/29 06:05:59;;;;;;;4.43;2.70;;;;;;;-0.94;76.73;98160.97;5082826;28;20036;-57
2023/12/29 06:08:25;;;;;;;4.57;2.13;;;;;;;-0.95;76.51;98156.75;5084722;28;20047;-58
2023/12/29 06:10:51;;;;;;;3.58;1.63;;;;;;;-0.93;76.43;98149.06;5085102;28;20031;-57
2023/12/29 06:13:17;;;;;;;3.38;2.00;;;;;;;-0.98;76.43;98143.16;5069209;28;20521;-55
2023/12/29 06:15:43;;;;;;;4.40;1.90;;;;;;;-0.91;76.38;98143.09;5081175;28;20511;-55
2023/12/29 06:18:08;;;;;;;4.50;1.33;;;;;;;-0.88;76.07;98137.06;5082310;28;20043;-54
2023/12/29 06:20:34;;;;;;;3.88;2.10;;;;;;;-0.99;76.49;98131.28;5078793;28;20041;-55
2023/12/29 06:23:00;;;;;;;3.75;1.67;;;;;;;-1.07;76.11;98097.41;5053778;28;20047;-59
2023/12/29 06:25:26;;;;;;;5.30;2.38;;;;;;;-0.88;76.04;98130.28;5080257;28;20044;-55
2023/12/29 06:27:54;;;;;;;4.30;2.05;;;;;;;-1.22;75.96;98089.97;5073874;28;20055;-56
2023/12/29 06:30:20;;;;;;;5.28;2.35;;;;;;;-0.81;76.00;98132.75;5055075;28;20542;-57
2023/12/29 06:32:46;;;;;;;6.03;2.22;;;;;;;-0.81;76.07;98123.38;5058532;28;20503;-56
2023/12/29 06:35:13;;;;;;;4.55;2.03;;;;;;;-0.71;75.82;98129.19;5045070;28;20055;-54
2023/12/29 06:37:40;;;;;;;6.30;2.35;;;;;;;-0.78;75.94;98118.22;5066895;28;20507;-56
2023/12/29 06:40:07;;;;;;;3.08;1.52;;;;;;;-0.91;75.64;98086.13;5073677;28;20048;-57
2023/12/29 06:42:33;;;;;;;3.67;1.90;;;;;;;-0.71;75.93;98116.44;5071388;28;20047;-55
2023/12/29 06:44:59;;;;;;;5.07;2.47;;;;;;;-1.01;75.95;98075.22;5072453;28;20040;-53
2023/12/29 06:47:25;;;;;;;7.35;2.55;;;;;;;-0.81;75.54;98113.19;5072310;28;20603;-52
2023/12/29 06:49:50;;;;;;;3.53;1.67;;;;;;;-1.01;75.88;98095.63;5075078;28;20040;-52
2023/12/29 06:52:17;;;;;;;7.55;2.38;;;;;;;-0.80;76.43;98126.78;5073954;28;20037;-51
2023/12/29 06:54:43;;;;;;;4.63;2.10;;;;;;;-0.72;75.98;98127.50;5082848;28;20055;-52
2023/12/29 06:57:09;;;;;;;12.60;3.15;;;;;;;-0.68;76.14;98129.16;5083594;28;20119;-57
2023/12/29 06:59:35;;;;;;;3.20;1.52;;;;;;;-0.94;76.10;98081.91;5068573;28;20184;-55
2023/12/29 07:02:01;;;;;;;6.13;1.75;;;;;;;-0.65;76.25;98124.00;5079377;28;20074;-54
2023/12/29 07:04:26;;;;;;;5.53;2.47;;;;;;;-0.62;76.19;98122.25;5083294;28;20135;-55
2023/12/29 07:06:53;;;;;;;5.55;2.28;;;;;;;-0.56;76.18;98109.41;5080841;28;20048;-52
2023/12/29 07:09:19;;;;;;;7.90;2.90;;;;;;;-0.52;76.17;98108.47;5083507;28;20075;-52
2023/12/29 07:11:49;;;;;;;4.40;2.33;;;;;;;-0.46;75.97;98094.78;5085522;28;20071;-53
2023/12/29 07:14:15;;;;;;;3.95;2.47;;;;;;;-0.37;75.56;98097.19;5079651;28;20044;-58
2023/12/29 07:16:41;;;;;;;5.57;2.60;;;;;;;-0.26;75.56;98097.03;5068074;28;20086;-58
2023/12/29 07:19:07;;;;;;;4.10;1.80;;;;;;;-0.26;75.20;98102.13;5082965;28;20036;-52
2023/12/29 07:21:34;;;;;;;10.95;2.65;;;;;;;-0.52;75.00;98070.19;5074233;28;20047;-54
2023/12/29 07:24:00;;;;;;;5.65;2.65;;;;;;;-0.48;75.19;98074.41;5081841;28;20036;-53
2023/12/29 07:26:26;;;;;;;5.68;2.55;;;;;;;-0.34;75.29;98102.25;5082779;28;20063;-55
2023/12/29 07:28:54;;;;;;;9.57;3.00;;;;;;;-0.22;75.60;98111.41;5082657;28;20210;-56
2023/12/29 07:31:21;;;;;;;5.82;2.72;;;;;;;-0.04;75.20;98103.44;5083917;28;20032;-58
2023/12/29 07:33:47;;;;;;;6.22;1.85;;;;;;;0.03;74.85;98110.13;5081294;28;20052;-54
2023/12/29 07:36:13;;;;;;;7.30;3.33;;;;;;;0.00;74.94;98105.09;5081180;28;20048;-53
2023/12/29 07:38:38;;;;;;;9.30;2.50;;;;;;;0.04;74.63;98099.03;5084714;28;20541;-54
2023/12/29 07:41:04;;;;;;;4.35;2.55;;;;;;;0.00;74.42;98095.69;5080041;28;20043;-58
2023/12/29 07:43:31;;;;;;;5.90;2.38;;;;;;;0.06;74.50;98099.00;5069134;28;20631;-54
2023/12/29 07:45:57;;;;;;;5.45;2.22;;;;;;;-0.21;74.26;98070.53;5070090;28;20040;-53
2023/12/29 07:48:23;;;;;;;5.57;2.28;;;;;;;-0.22;74.29;98068.00;5078827;28;20058;-54
2023/12/29 07:50:49;;;;;;;7.35;3.50;;;;;;;-0.03;74.25;98098.31;5072230;28;20559;-57
2023/12/29 07:53:15;;;;;;;9.20;2.28;;;;;;;0.07;74.46;98100.69;5057619;28;20445;-56
2023/12/29 07:55:43;;;;;;;8.32;3.05;;;;;;;0.16;74.05;98082.66;5065916;28;20059;-62
2023/12/29 07:58:10;;;;;;;4.75;2.13;;;;;;;0.32;74.39;98086.59;5078045;28;20031;-59
2023/12/29 08:00:36;;;;;;;4.85;2.20;;;;;;;0.26;73.72;98084.16;5076349;28;20408;-59
2023/12/29 08:03:02;;;;;;;6.78;3.03;;;;;;;0.18;74.11;98078.34;5061063;28;20040;-56
2023/12/29 08:05:28;;;;;;;6.13;2.75;;;;;;;0.26;74.20;98087.53;5083918;28;20081;-56
2023/12/29 08:07:54;;;;;;;5.50;2.47;;;;;;;0.37;74.00;98097.56;5081989;28;20036;-61
2023/12/29 08:10:21;;;;;;;6.13;2.85;;;;;;;0.12;74.24;98081.84;5087485;28;20062;-57
2023/12/29 08:12:47;;;;;;;6.18;2.67;;;;;;;0.13;74.54;98081.00;5081041;28;20052;-60
2023/12/29 08:15:12;;;;;;;5.63;2.50;;;;;;;0.12;74.75;98081.00;5076218;28;20861;-60
2023/12/29 08:17:38;;;;;;;5.82;2.92;;;;;;;0.20;75.09;98074.06;5074154;28;20071;-62
2023/12/29 08:20:05;;;;;;;9.43;2.90;;;;;;;0.28;74.43;98060.25;5066959;28;20139;-59
2023/12/29 08:22:32;;;;;;;7.32;3.53;;;;;;;0.34;74.35;98075.47;5084893;28;20044;-62
2023/12/29 08:24:58;;;;;;;2.70;1.65;;;;;;;0.31;73.70;98080.66;5085335;28;20119;-60
2023/12/29 08:27:28;;;;;;;8.07;3.03;;;;;;;0.19;74.37;98068.09;5085456;28;20093;-57
2023/12/29 08:29:56;;;;;;;;;;;;;;;0.33;74.77;98076.34;5078147;28;20131;-62
2023/12/29 08:32:22;;;;;;;8.07;2.83;;;;;;;0.17;74.54;98061.31;5059515;28;20431;-63
2023/12/29 08:34:48;;;;;;;8.43;3.35;;;;;;;0.25;74.98;98056.94;5065323;28;20869;-60
2023/12/29 08:37:19;;;;;;;12.25;4.00;;;;;;;0.26;74.86;98046.66;5085102;28;20040;-59
2023/12/29 08:39:47;;;;;;;7.05;3.28;;;;;;;0.28;74.65;98049.19;5083138;28;20063;-63
2023/12/29 08:42:14;;;;;;;8.07;3.65;;;;;;;0.25;75.42;98052.66;5075081;28;20408;-63
2023/12/29 08:44:40;;;;;;;7.15;2.90;;;;;;;0.23;75.70;98053.53;5072590;28;20637;-63
2023/12/29 08:47:08;;;;;;;6.18;2.70;;;;;;;0.24;75.65;98050.97;5073985;28;20048;-62
2023/12/29 08:49:36;;;;;;;7.75;3.45;;;;;;;0.24;75.82;98048.41;5075289;28;20032;-62
2023/12/29 08:52:02;;;;;;;8.35;3.25;;;;;;;0.25;76.65;98049.25;5074956;28;20181;-63
2023/12/29 08:54:27;;;;;;;6.43;2.85;;;;;;;0.25;76.78;98041.59;5073033;28;20152;-63
2023/12/29 08:56:53;;;;;;;4.65;2.38;;;;;;;0.32;76.75;98045.69;5076416;28;20051;-63
2023/12/29 08:59:19;;;;;;;12.20;2.78;;;;;;;0.19;76.69;98001.66;5081679;28;20082;-61
2023/12/29 09:01:46;;;;;;;8.05;3.63;;;;;;;0.55;76.56;98030.75;5083681;28;20044;-62
2023/12/29 09:04:12;;;;;;;4.88;1.90;;;;;;;0.49;76.07;97986.56;5074237;28;20039;-63
2023/12/29 09:06:38;;;;;;;8.85;2.92;;;;;;;0.71;76.05;98029.53;5088723;27;20037;-62
2023/12/29 09:09:04;;;;;;;10.27;3.92;;;;;;;0.33;76.07;97976.66;5072844;28;20052;-64
2023/12/29 09:11:30;;;;;;;6.10;3.22;;;;;;;0.67;76.09;98029.66;5075167;28;20049;-61
2023/12/29 09:13:56;;;;;;;8.40;3.58;;;;;;;0.67;76.33;98017.72;5078856;28;20036;-62
2023/12/29 09:16:22;;;;;;;7.18;3.15;;;;;;;0.60;76.36;98020.41;5066497;28;20037;-62
2023/12/29 09:18:47;;;;;;;3.63;1.90;;;;;;;0.47;76.67;98019.00;5082768;28;20143;-62
2023/12/29 09:21:13;;;;;;;8.93;2.92;;;;;;;0.22;77.56;97986.25;5064046;28;20068;-61
2023/12/29 09:23:40;;;;;;;6.88;2.67;;;;;;;0.28;78.24;97993.81;5086679;28;20128;-63
2023/12/29 09:26:06;;;;;;;12.63;3.22;;;;;;;-0.01;78.67;97929.72;5057795;28;20539;-64
2023/12/29 09:28:32;;;;;;;8.68;3.42;;;;;;;0.47;78.58;98001.97;5074028;28;20040;-61
2023/12/29 09:30:58;;;;;;;7.68;2.60;;;;;;;0.55;78.70;98001.78;5073813;28;20040;-57
2023/12/29 09:33:24;;;;;;;8.75;2.75;;;;;;;0.55;78.89;97986.44;5074234;28;20416;-58
2023/12/29 09:35:51;;;;;;;4.30;2.17;;;;;;;0.66;78.84;97987.03;5081771;28;20043;-57
2023/12/29 09:38:18;;;;;;;6.78;2.97;;;;;;;0.72;78.61;97997.16;5077936;28;20040;-57
2023/12/29 09:40:43;;;;;;;5.55;2.40;;;;;;;0.65;78.10;97998.13;5076640;28;20036;-58
2023/12/29 09:43:10;;;;;;;7.10;2.33;;;;;;;0.69;78.31;98002.31;5064999;28;20047;-59
2023/12/29 09:45:40;;;;;;;3.97;2.03;;;;;;;0.71;78.73;98013.34;5059426;28;20042;-51
2023/12/29 09:48:07;;;;;;;6.32;2.65;;;;;;;0.64;78.42;97983.66;5082745;28;20040;-59
2023/12/29 09:50:35;;;;;;;6.25;2.97;;;;;;;0.61;78.25;97986.31;5072051;28;20039;-58
2023/12/29 09:53:02;;;;;;;6.13;2.88;;;;;;;0.56;78.23;97980.47;5071906;28;20040;-60
2023/12/29 09:55:29;;;;;;;8.82;3.10;;;;;;;0.76;78.65;97991.94;5072985;28;20044;-57
2023/12/29 09:57:55;;;;;;;6.93;3.53;;;;;;;0.62;78.22;97949.66;5055148;28;20186;-61
2023/12/29 10:00:21;;;;;;;7.07;3.13;;;;;;;0.73;78.22;97948.50;5079611;28;20040;-59
2023/12/29 10:02:51;;;;;;;7.13;3.00;;;;;;;1.07;77.86;97978.41;5061974;28;20508;-60
2023/12/29 10:05:17;;;;;;;6.07;2.80;;;;;;;1.07;77.62;97968.19;5076297;28;20036;-57
2023/12/29 10:07:44;;;;;;;5.50;2.78;;;;;;;0.98;77.48;97968.41;5072980;28;20037;-57
2023/12/29 10:10:16;;;;;;;8.20;3.38;;;;;;;1.11;77.74;97973.19;5074467;28;20134;-59
2023/12/29 10:12:47;;;;;;;7.93;2.53;;;;;;;1.00;77.72;97952.13;5082635;28;20039;-57
2023/12/29 10:15:37;;;;;;;5.57;2.75;;;;;;;1.10;78.09;97968.94;5078414;28;20045;-60
2023/12/29 10:18:29;;;;;;;6.85;2.47;;;;;;;1.09;78.13;97974.13;5058504;28;20134;-58
2023/12/29 10:20:59;;;;;;;8.95;2.97;;;;;;;1.12;78.40;97982.56;5079670;28;20151;-61
2023/12/29 10:23:30;;;;;;;9.85;3.70;;;;;;;1.16;78.20;97975.63;5072911;28;20044;-61
2023/12/29 10:25:57;;;;;;;8.20;3.40;;;;;;;1.23;78.14;97970.34;5073306;28;20040;-57
2023/12/29 10:28:23;;;;;;;9.15;3.67;;;;;;;1.34;77.88;97976.91;5071075;28;20054;-55
2023/12/29 10:30:49;;;;;;;12.18;3.50;;;;;;;1.40;77.82;97980.16;5075214;28;20123;-58
2023/12/29 10:33:21;;;;;;;8.82;2.20;;;;;;;1.04;77.88;97940.97;5068654;28;20044;-59
2023/12/29 10:36:06;;;;;;;6.40;2.47;;;;;;;1.23;78.27;97972.06;5074226;28;20044;-59
2023/12/29 10:38:32;;;;;;;7.75;3.20;;;;;;;1.24;78.35;97964.34;5081288;28;20050;-60
2023/12/29 10:41:11;;;;;;;8.60;3.20;;;;;;;1.28;78.23;97968.50;5076252;28;20040;-57
2023/12/29 10:43:37;;;;;;;6.88;3.20;;;;;;;1.01;78.16;97929.94;5072239;28;20431;-55
2023/12/29 10:46:08;;;;;;;8.75;3.15;;;;;;;1.37;78.88;97961.47;5070633;28;20035;-58
2023/12/29 10:48:34;;;;;;;5.95;3.22;;;;;;;1.35;78.77;97951.28;5072244;28;20044;-55
2023/12/29 10:51:03;;;;;;;10.55;3.35;;;;;;;1.36;78.88;97941.88;5074006;28;20036;-58
2023/12/29 10:53:31;;;;;;;8.60;3.33;;;;;;;1.44;78.87;97951.03;5071618;28;20127;-61
2023/12/29 10:56:00;;;;;;;7.35;2.83;;;;;;;1.50;78.95;97944.91;5082404;28;20132;-56
2023/12/29 10:58:28;;;;;;;7.10;3.63;;;;;;;1.57;78.69;97960.06;5078335;28;20400;-58
2023/12/29 11:00:56;;;;;;;8.30;3.55;;;;;;;1.29;78.60;97918.16;5075893;28;20052;-56
2023/12/29 11:03:22;;;;;;;6.05;2.88;;;;;;;1.56;78.64;97960.13;5052116;28;20040;-58
2023/12/29 11:05:49;;;;;;;10.80;3.08;;;;;;;1.52;79.24;97958.50;5082582;28;20048;-59
2023/12/29 11:08:19;;;;;;;5.85;2.42;;;;;;;1.59;79.61;97963.44;5078586;28;20048;-58
2023/12/29 11:10:45;;;;;;;7.38;3.58;;;;;;;1.31;79.83;97915.56;5077594;28;20074;-57
2023/12/29 11:13:13;;;;;;;7.55;3.42;;;;;;;1.58;79.69;97959.19;5075252;28;20565;-61
2023/12/29 11:15:45;;;;;;;7.22;3.15;;;;;;;1.33;79.89;97913.78;5057125;28;20500;-61
2023/12/29 11:18:16;;;;;;;4.07;2.05;;;;;;;1.51;80.49;97956.84;5070865;28;20067;-61
2023/12/29 11:20:46;;;;;;;7.88;3.75;;;;;;;1.55;80.88;97961.00;5065012;28;20126;-59
2023/12/29 11:23:18;;;;;;;5.70;3.03;;;;;;;1.55;80.97;97955.88;5068305;28;20783;-61
2023/12/29 11:25:48;;;;;;;5.10;2.55;;;;;;;1.56;81.14;97955.00;5071189;28;20045;-60
2023/12/29 11:28:16;;;;;;;7.57;3.55;;;;;;;1.55;81.82;97956.72;5069353;28;20052;-59
2023/12/29 11:30:42;;;;;;;2.75;1.85;;;;;;;1.63;82.05;97966.75;5064760;28;20040;-59
2023/12/29 11:33:22;;;;;;;5.68;3.30;;;;;;;1.58;82.84;97950.66;5079586;28;20040;-62
2023/12/29 11:35:54;;;;;;;7.82;3.22;;;;;;;1.70;82.69;97963.16;5047759;28;20538;-60